Time;durP1;ratioP1;P1;durP2;ratioP2;P2;SDS_P1;SDS_P2;PMS_P1;PMS_P2;Temp;Humidity;BMP_temperature;BMP_pressure;BME280_temperature;BME280_humidity;BME280_pressure;Samples;Min_cycle;Max_cycle;Signal;HPM_P1;HPM_P2
2024/01/02 00:00:07;;;;;;;2.08;0.65;;;9.70;99.90;;;;;;5032586;28;20495;-68
2024/01/02 00:02:38;;;;;;;1.05;0.13;;;9.70;99.90;;;;;;5033828;28;20052;-70
2024/01/02 00:05:04;;;;;;;1.42;0.50;;;9.70;99.90;;;;;;5033461;28;20037;-68
2024/01/02 00:07:29;;;;;;;2.78;0.98;;;9.70;99.90;;;;;;5033179;28;20418;-67
2024/01/02 00:09:55;;;;;;;0.10;0.10;;;9.70;99.90;;;;;;5033373;28;20056;-69
2024/01/02 00:12:21;;;;;;;0.95;0.43;;;9.70;99.90;;;;;;5033263;28;20124;-70
2024/01/02 00:14:47;;;;;;;2.72;0.73;;;9.70;99.90;;;;;;5031554;28;20473;-68
2024/01/02 00:17:13;;;;;;;0.00;0.00;;;9.70;99.90;;;;;;5033273;28;20464;-68
2024/01/02 00:19:38;;;;;;;1.33;0.52;;;9.70;99.90;;;;;;5032861;28;20091;-67
2024/01/02 00:22:04;;;;;;;0.85;0.25;;;9.70;99.90;;;;;;5033046;28;20068;-67
2024/01/02 00:24:30;;;;;;;1.38;0.57;;;9.70;99.90;;;;;;5032731;28;20436;-68
2024/01/02 00:26:56;;;;;;;0.90;0.20;;;9.70;99.90;;;;;;5033032;28;20025;-67
2024/01/02 00:29:22;;;;;;;0.43;0.43;;;9.70;99.90;;;;;;5032902;28;20029;-68
2024/01/02 00:31:48;;;;;;;2.00;0.43;;;9.80;99.90;;;;;;5031744;28;20067;-67
2024/01/02 00:34:14;;;;;;;1.70;0.47;;;9.80;99.90;;;;;;5032216;28;20375;-68
2024/01/02 00:36:39;;;;;;;0.90;0.45;;;9.80;99.90;;;;;;5031363;28;20025;-67
2024/01/02 00:39:05;;;;;;;1.08;0.43;;;9.80;99.90;;;;;;5032507;28;20037;-67
2024/01/02 00:41:32;;;;;;;8.30;0.57;;;9.80;99.90;;;;;;5032844;28;20029;-68
2024/01/02 00:43:58;;;;;;;0.38;0.38;;;9.80;99.90;;;;;;5031348;28;20040;-69
2024/01/02 00:46:24;;;;;;;1.27;0.43;;;9.80;99.90;;;;;;5031474;28;20029;-68
2024/01/02 00:48:49;;;;;;;10.82;0.52;;;9.80;99.90;;;;;;5032826;28;20048;-68
2024/01/02 00:51:16;;;;;;;0.65;0.43;;;9.80;99.90;;;;;;5032429;28;20057;-67
2024/01/02 00:53:41;;;;;;;0.85;0.55;;;9.90;99.90;;;;;;5032675;28;20033;-68
2024/01/02 00:56:07;;;;;;;0.10;0.10;;;9.90;99.90;;;;;;5032534;28;20030;-68
2024/01/02 00:58:33;;;;;;;0.10;0.10;;;9.90;99.90;;;;;;5031405;28;20072;-68
2024/01/02 01:01:04;;;;;;;0.10;0.10;;;10.00;99.90;;;;;;5032621;28;20072;-68
2024/01/02 01:03:30;;;;;;;1.42;0.30;;;10.00;99.90;;;;;;5031326;28;20053;-67
2024/01/02 01:05:56;;;;;;;0.00;0.00;;;10.00;99.90;;;;;;5033771;28;20485;-68
2024/01/02 01:08:22;;;;;;;0.60;0.10;;;10.00;99.90;;;;;;5045164;28;20053;-69
2024/01/02 01:10:47;;;;;;;0.15;0.15;;;10.00;99.90;;;;;;5032497;28;20025;-67
2024/01/02 01:13:13;;;;;;;0.10;0.10;;;10.00;99.90;;;;;;5032416;28;20033;-69
2024/01/02 01:15:39;;;;;;;0.43;0.20;;;10.10;99.90;;;;;;5032419;28;20037;-67
2024/01/02 01:18:05;;;;;;;0.10;0.10;;;10.10;99.90;;;;;;5014621;28;20034;-67
2024/01/02 01:20:31;;;;;;;0.00;0.00;;;10.10;99.90;;;;;;5032150;28;20041;-68
2024/01/02 01:22:57;;;;;;;0.10;0.10;;;10.10;99.90;;;;;;5031256;28;20092;-67
2024/01/02 01:25:23;;;;;;;0.57;0.40;;;10.20;99.90;;;;;;5032454;28;20029;-68
2024/01/02 01:27:49;;;;;;;0.00;0.00;;;10.20;99.90;;;;;;5032613;28;20033;-67
2024/01/02 01:30:15;;;;;;;0.10;0.10;;;10.20;99.90;;;;;;5032174;28;20425;-67
2024/01/02 01:32:41;;;;;;;0.00;0.00;;;10.30;99.90;;;;;;5031362;28;20409;-68
2024/01/02 01:35:08;;;;;;;0.10;0.10;;;10.30;99.90;;;;;;5031923;28;20025;-67
2024/01/02 01:37:33;;;;;;;0.10;0.10;;;10.30;99.90;;;;;;5032445;28;20026;-68
2024/01/02 01:40:00;;;;;;;0.00;0.00;;;10.40;99.90;;;;;;5031172;28;20053;-68
2024/01/02 01:42:26;;;;;;;0.17;0.15;;;10.40;99.90;;;;;;5030988;28;20122;-67
2024/01/02 01:44:52;;;;;;;0.88;0.40;;;10.40;99.90;;;;;;5032308;28;20541;-68
2024/01/02 01:47:18;;;;;;;0.52;0.52;;;10.40;99.90;;;;;;5033515;28;20034;-67
2024/01/02 01:49:44;;;;;;;0.10;0.10;;;10.40;99.90;;;;;;5034231;28;20044;-69
2024/01/02 01:52:11;;;;;;;0.10;0.10;;;10.40;99.90;;;;;;5017985;28;20462;-68
2024/01/02 01:54:38;;;;;;;0.13;0.13;;;10.50;99.90;;;;;;5034542;28;20416;-67
2024/01/02 01:57:04;;;;;;;0.10;0.10;;;10.60;99.90;;;;;;5034496;28;20041;-68
2024/01/02 01:59:31;;;;;;;0.20;0.20;;;10.50;99.90;;;;;;5034215;28;20068;-68
2024/01/02 02:01:59;;;;;;;0.00;0.00;;;10.50;99.90;;;;;;5035552;28;20026;-67
2024/01/02 02:04:28;;;;;;;0.17;0.17;;;10.50;99.90;;;;;;5033902;28;20167;-68
2024/01/02 02:06:54;;;;;;;0.40;0.17;;;10.50;99.90;;;;;;5017863;28;20033;-70
2024/01/02 02:09:19;;;;;;;0.20;0.20;;;10.50;99.90;;;;;;5017724;28;20429;-69
2024/01/02 02:11:46;;;;;;;2.53;0.93;;;10.60;99.90;;;;;;5034160;28;20029;-68
2024/01/02 02:14:12;;;;;;;3.47;0.60;;;10.60;99.90;;;;;;5033948;28;20410;-67
2024/01/02 02:16:42;;;;;;;0.98;0.65;;;10.60;99.90;;;;;;5034933;28;20082;-67
2024/01/02 02:19:08;;;;;;;7.82;0.70;;;10.70;99.90;;;;;;5033759;28;20151;-68
2024/01/02 02:21:35;;;;;;;0.20;0.20;;;10.70;99.90;;;;;;5017087;28;20792;-68
2024/01/02 02:24:01;;;;;;;1.15;0.45;;;10.70;99.90;;;;;;5034131;28;20029;-68
2024/01/02 02:26:28;;;;;;;0.10;0.10;;;10.70;99.90;;;;;;5033854;28;20534;-68
2024/01/02 02:28:54;;;;;;;0.75;0.32;;;10.70;99.90;;;;;;5034988;28;20121;-68
2024/01/02 02:31:20;;;;;;;0.00;0.00;;;10.80;99.90;;;;;;5033551;28;20033;-68
2024/01/02 02:33:45;;;;;;;0.55;0.40;;;10.80;99.90;;;;;;5034610;28;20030;-68
2024/01/02 02:36:11;;;;;;;0.13;0.13;;;10.80;99.90;;;;;;5033519;28;20032;-69
2024/01/02 02:38:37;;;;;;;0.10;0.10;;;10.80;99.90;;;;;;5033461;28;20057;-68
2024/01/02 02:41:03;;;;;;;0.20;0.20;;;10.90;99.90;;;;;;5035023;28;20021;-68
2024/01/02 02:43:29;;;;;;;0.00;0.00;;;11.00;99.90;;;;;;5033326;28;20071;-68
2024/01/02 02:45:55;;;;;;;0.10;0.10;;;10.90;99.90;;;;;;5033157;28;20465;-68
2024/01/02 02:48:21;;;;;;;0.32;0.30;;;11.10;99.90;;;;;;5034379;28;20049;-68
2024/01/02 02:50:47;;;;;;;0.20;0.20;;;11.10;99.90;;;;;;5034534;28;20116;-68
2024/01/02 02:53:12;;;;;;;0.10;0.10;;;11.10;99.90;;;;;;5033438;28;20022;-68
2024/01/02 02:55:38;;;;;;;0.00;0.00;;;11.20;99.90;;;;;;5033226;28;20079;-68
2024/01/02 02:58:04;;;;;;;0.15;0.15;;;11.30;99.90;;;;;;5039498;28;20072;-69
2024/01/02 03:00:31;;;;;;;0.10;0.10;;;11.30;99.90;;;;;;5032967;28;20021;-68
2024/01/02 03:02:57;;;;;;;0.00;0.00;;;11.30;99.90;;;;;;5033891;28;20029;-67
2024/01/02 03:05:23;;;;;;;0.10;0.10;;;11.40;99.90;;;;;;5034116;28;20075;-69
2024/01/02 03:07:48;;;;;;;0.00;0.00;;;11.50;99.90;;;;;;5034100;28;20029;-68
2024/01/02 03:10:17;;;;;;;0.00;0.00;;;11.50;99.90;;;;;;5033173;28;20060;-68
2024/01/02 03:12:44;;;;;;;0.10;0.10;;;11.60;99.90;;;;;;5033947;28;20135;-68
2024/01/02 03:15:10;;;;;;;0.00;0.00;;;11.70;99.90;;;;;;5032793;28;20040;-68
2024/01/02 03:17:36;;;;;;;0.10;0.10;;;11.70;99.90;;;;;;5033570;28;20029;-69
2024/01/02 03:20:02;;;;;;;0.10;0.10;;;11.80;99.90;;;;;;5034094;28;20129;-68
2024/01/02 03:22:28;;;;;;;0.10;0.10;;;11.80;99.90;;;;;;5033934;28;20044;-69
2024/01/02 03:24:54;;;;;;;0.40;0.22;;;11.80;99.90;;;;;;5034046;28;20037;-67
2024/01/02 03:27:20;;;;;;;0.10;0.10;;;11.90;99.90;;;;;;5033918;28;20030;-67
2024/01/02 03:29:46;;;;;;;4.47;0.43;;;11.90;99.90;;;;;;5033877;28;20033;-68
2024/01/02 03:32:11;;;;;;;0.10;0.10;;;11.90;99.90;;;;;;5033608;28;20041;-68
2024/01/02 03:34:38;;;;;;;0.05;0.05;;;12.00;99.90;;;;;;5033474;28;20028;-68
2024/01/02 03:37:03;;;;;;;0.20;0.20;;;12.00;99.90;;;;;;5033781;28;20497;-67
2024/01/02 03:39:30;;;;;;;0.00;0.00;;;12.10;99.90;;;;;;5033775;28;20037;-69
2024/01/02 03:41:56;;;;;;;0.10;0.10;;;12.20;99.90;;;;;;5033547;28;20028;-67
2024/01/02 03:44:22;;;;;;;0.10;0.10;;;12.20;99.90;;;;;;5033936;28;20065;-69
2024/01/02 03:46:48;;;;;;;1.40;0.25;;;12.20;99.90;;;;;;5031917;28;20029;-68
2024/01/02 03:49:13;;;;;;;0.10;0.10;;;12.20;99.90;;;;;;5033406;28;20027;-68
2024/01/02 03:51:39;;;;;;;0.00;0.00;;;12.20;99.90;;;;;;5032267;28;20040;-68
2024/01/02 03:54:06;;;;;;;0.20;0.20;;;12.30;99.90;;;;;;5032946;28;20363;-68
2024/01/02 03:56:32;;;;;;;0.10;0.10;;;12.30;99.90;;;;;;5033344;28;20025;-70
2024/01/02 03:58:59;;;;;;;0.00;0.00;;;12.30;99.90;;;;;;5032973;28;20033;-68
2024/01/02 04:01:25;;;;;;;0.35;0.30;;;12.40;99.90;;;;;;5033025;28;20425;-68
2024/01/02 04:03:51;;;;;;;0.10;0.10;;;12.40;99.90;;;;;;5032793;28;20037;-68
2024/01/02 04:06:16;;;;;;;1.45;0.20;;;12.40;99.90;;;;;;5033023;28;20088;-69
2024/01/02 04:08:42;;;;;;;0.10;0.10;;;12.40;99.90;;;;;;5032319;28;20109;-68
2024/01/02 04:11:08;;;;;;;0.10;0.10;;;12.50;99.90;;;;;;5032928;28;20032;-67
2024/01/02 04:13:34;;;;;;;0.05;0.05;;;12.50;99.90;;;;;;5032434;28;20509;-68
2024/01/02 04:16:00;;;;;;;0.20;0.10;;;12.60;99.90;;;;;;5032818;28;20039;-68
2024/01/02 04:18:25;;;;;;;0.10;0.10;;;12.50;99.90;;;;;;5032624;28;20079;-68
2024/01/02 04:20:51;;;;;;;0.10;0.10;;;12.60;99.90;;;;;;5032902;28;20028;-69
2024/01/02 04:23:17;;;;;;;0.10;0.10;;;12.60;99.90;;;;;;5032729;28;20032;-68
2024/01/02 04:25:43;;;;;;;0.75;0.30;;;12.70;99.90;;;;;;5031544;28;20108;-68
2024/01/02 04:28:09;;;;;;;0.60;0.20;;;12.80;99.90;;;;;;5019028;28;20030;-68
2024/01/02 04:30:35;;;;;;;0.10;0.10;;;12.80;99.90;;;;;;5031183;28;20022;-69
2024/01/02 04:33:01;;;;;;;1.08;0.60;;;12.80;99.90;;;;;;5032786;28;20037;-68
2024/01/02 04:35:27;;;;;;;0.10;0.10;;;12.80;99.90;;;;;;5032455;28;20061;-69
2024/01/02 04:37:53;;;;;;;0.10;0.10;;;12.80;99.90;;;;;;5015001;28;20034;-68
2024/01/02 04:40:19;;;;;;;0.00;0.00;;;12.90;99.90;;;;;;5032786;28;20219;-68
2024/01/02 04:42:44;;;;;;;0.10;0.10;;;12.80;99.90;;;;;;5032505;28;20438;-67
2024/01/02 04:45:10;;;;;;;0.17;0.17;;;12.80;99.90;;;;;;5032278;28;20028;-68
2024/01/02 04:47:36;;;;;;;0.38;0.38;;;12.90;99.90;;;;;;5032673;28;20033;-68
2024/01/02 04:50:04;;;;;;;0.10;0.10;;;12.90;99.90;;;;;;5032224;28;20022;-68
2024/01/02 04:52:30;;;;;;;0.10;0.10;;;12.90;99.90;;;;;;5032986;28;20348;-68
2024/01/02 04:54:56;;;;;;;0.10;0.10;;;13.00;99.90;;;;;;5032452;28;20544;-67
2024/01/02 04:57:22;;;;;;;0.10;0.10;;;13.10;99.90;;;;;;5030867;28;20038;-69
2024/01/02 04:59:48;;;;;;;0.25;0.25;;;13.00;99.90;;;;;;5032469;28;20048;-67
2024/01/02 05:02:14;;;;;;;0.10;0.10;;;13.10;99.90;;;;;;5031429;28;20371;-67
2024/01/02 05:04:41;;;;;;;0.10;0.10;;;13.10;99.90;;;;;;5032138;28;20095;-67
2024/01/02 05:07:08;;;;;;;0.20;0.20;;;13.20;99.90;;;;;;5046288;28;20474;-67
2024/01/02 05:09:33;;;;;;;0.10;0.10;;;13.20;99.90;;;;;;5032299;28;20263;-67
2024/01/02 05:11:59;;;;;;;0.28;0.28;;;13.30;99.90;;;;;;5045207;28;20056;-67
2024/01/02 05:14:25;;;;;;;0.22;0.22;;;13.30;99.90;;;;;;5050665;28;20420;-67
2024/01/02 05:16:51;;;;;;;0.65;0.50;;;13.30;99.90;;;;;;5052219;28;20033;-68
2024/01/02 05:19:18;;;;;;;0.30;0.30;;;13.30;99.90;;;;;;5035093;28;20041;-68
2024/01/02 05:21:44;;;;;;;0.30;0.30;;;13.30;99.90;;;;;;5035762;28;20033;-67
2024/01/02 05:24:09;;;;;;;0.10;0.10;;;13.30;99.90;;;;;;5035919;28;20025;-67
2024/01/02 05:26:35;;;;;;;0.65;0.32;;;13.40;99.90;;;;;;5034435;28;20017;-68
2024/01/02 05:29:01;;;;;;;0.60;0.60;;;13.50;99.90;;;;;;5034990;28;20474;-68
2024/01/02 05:31:27;;;;;;;2.38;1.35;;;13.60;99.90;;;;;;5035927;28;20018;-68
2024/01/02 05:33:53;;;;;;;1.45;0.70;;;13.60;99.90;;;;;;5031608;28;20029;-68
2024/01/02 05:36:18;;;;;;;0.88;0.88;;;13.70;99.90;;;;;;5035909;28;20022;-69
2024/01/02 05:38:46;;;;;;;6.75;2.17;;;13.70;99.90;;;;;;5032213;28;20040;-68
2024/01/02 05:41:12;;;;;;;4.55;0.90;;;13.70;99.90;;;;;;5033773;28;20044;-67
2024/01/02 05:43:38;;;;;;;0.32;0.32;;;13.80;99.90;;;;;;5042819;28;20025;-68
2024/01/02 05:46:04;;;;;;;0.60;0.60;;;13.80;99.90;;;;;;5035831;28;20033;-67
2024/01/02 05:48:30;;;;;;;1.25;0.82;;;13.80;99.90;;;;;;5035740;28;20025;-68
2024/01/02 05:50:57;;;;;;;1.27;0.68;;;13.90;99.90;;;;;;5034316;28;20026;-68
2024/01/02 05:53:23;;;;;;;1.60;0.55;;;13.90;99.90;;;;;;5035575;28;20021;-68
2024/01/02 05:55:49;;;;;;;0.10;0.10;;;13.90;99.90;;;;;;5035112;28;20033;-69
2024/01/02 05:58:15;;;;;;;0.77;0.20;;;13.90;99.90;;;;;;5035566;28;20393;-68
2024/01/02 06:00:41;;;;;;;0.28;0.28;;;14.00;99.90;;;;;;5035470;28;20033;-68
2024/01/02 06:03:06;;;;;;;5.43;0.77;;;14.00;99.90;;;;;;5035154;28;20022;-69
2024/01/02 06:05:32;;;;;;;0.65;0.30;;;14.00;99.90;;;;;;5034149;28;20083;-68
2024/01/02 06:07:58;;;;;;;0.10;0.10;;;14.00;99.90;;;;;;5034265;28;20021;-68
2024/01/02 06:10:24;;;;;;;1.33;0.73;;;14.00;99.90;;;;;;5035314;28;20030;-68
2024/01/02 06:12:50;;;;;;;0.45;0.30;;;13.90;99.90;;;;;;5035117;28;20536;-68
2024/01/02 06:15:16;;;;;;;0.75;0.30;;;14.00;99.90;;;;;;5035200;28;20481;-69
2024/01/02 06:17:42;;;;;;;2.28;0.98;;;14.00;99.90;;;;;;5035344;28;20028;-68
2024/01/02 06:20:10;;;;;;;4.43;0.55;;;13.90;99.90;;;;;;5035218;28;20037;-69
2024/01/02 06:22:39;;;;;;;0.63;0.40;;;13.90;99.90;;;;;;5035055;28;20036;-68
2024/01/02 06:25:10;;;;;;;1.77;0.30;;;13.90;99.90;;;;;;5033710;28;20425;-69
2024/01/02 06:27:36;;;;;;;2.08;0.43;;;13.90;99.90;;;;;;5048972;28;20025;-69
2024/01/02 06:30:05;;;;;;;1.17;0.60;;;13.90;99.90;;;;;;5034191;28;20075;-68
2024/01/02 06:32:33;;;;;;;5.40;0.22;;;13.80;99.90;;;;;;5032926;28;20033;-68
2024/01/02 06:34:59;;;;;;;0.30;0.30;;;13.80;99.90;;;;;;5047615;28;20478;-67
2024/01/02 06:37:25;;;;;;;1.08;0.38;;;13.70;99.90;;;;;;5034785;28;20026;-68
2024/01/02 06:39:51;;;;;;;4.07;0.43;;;13.70;99.90;;;;;;5034457;28;20486;-69
2024/01/02 06:42:17;;;;;;;20.75;1.27;;;13.70;99.90;;;;;;5034790;28;20026;-68
2024/01/02 06:44:43;;;;;;;1.67;0.65;;;13.70;99.90;;;;;;5034658;28;20064;-68
2024/01/02 06:47:10;;;;;;;0.75;0.17;;;13.70;99.90;;;;;;5033591;28;20390;-68
2024/01/02 06:49:35;;;;;;;2.47;1.70;;;13.70;99.90;;;;;;5034752;28;20025;-68
2024/01/02 06:52:01;;;;;;;1.00;0.30;;;13.60;99.90;;;;;;5040852;28;20382;-69
2024/01/02 06:54:27;;;;;;;3.15;0.98;;;13.60;99.90;;;;;;5041701;28;20037;-68
2024/01/02 06:56:53;;;;;;;0.55;0.40;;;13.60;99.90;;;;;;5033105;28;20026;-69
2024/01/02 06:59:19;;;;;;;3.50;0.60;;;13.60;99.90;;;;;;5034551;28;20080;-70
2024/01/02 07:01:45;;;;;;;4.43;0.93;;;13.60;99.90;;;;;;5034462;28;20029;-68
2024/01/02 07:04:12;;;;;;;0.00;0.00;;;13.60;99.90;;;;;;5034320;28;20030;-68
2024/01/02 07:06:37;;;;;;;0.45;0.45;;;13.60;99.90;;;;;;5034094;28;20022;-67
2024/01/02 07:09:04;;;;;;;1.52;0.63;;;13.50;99.90;;;;;;5034090;28;20292;-68
2024/01/02 07:11:31;;;;;;;3.97;1.27;;;13.50;99.90;;;;;;5033185;28;20489;-69
2024/01/02 07:13:57;;;;;;;0.55;0.38;;;13.50;99.90;;;;;;5033688;28;20045;-68
2024/01/02 07:16:23;;;;;;;0.20;0.20;;;13.50;99.90;;;;;;5041120;28;20108;-68
2024/01/02 07:18:49;;;;;;;2.20;0.60;;;13.50;99.90;;;;;;5040807;28;20069;-69
2024/01/02 07:21:15;;;;;;;3.75;0.38;;;13.60;99.90;;;;;;5033777;28;20025;-69
2024/01/02 07:23:41;;;;;;;0.28;0.20;;;13.60;99.90;;;;;;5032408;28;20453;-69
2024/01/02 07:26:08;;;;;;;2.88;0.65;;;13.50;99.90;;;;;;5034038;28;20136;-68
2024/01/02 07:28:36;;;;;;;0.93;0.20;;;13.60;99.90;;;;;;5033917;28;20108;-69
2024/01/02 07:31:02;;;;;;;10.05;0.38;;;13.60;99.90;;;;;;5034025;28;20033;-70
2024/01/02 07:33:28;;;;;;;2.83;1.67;;;13.70;99.90;;;;;;5033571;28;20022;-69
2024/01/02 07:35:53;;;;;;;0.05;0.05;;;13.60;99.90;;;;;;5033938;28;20025;-68
2024/01/02 07:38:19;;;;;;;0.65;0.65;;;13.60;99.90;;;;;;5033176;28;20394;-68
2024/01/02 07:40:45;;;;;;;0.15;0.15;;;13.60;99.90;;;;;;5033777;28;20093;-69
2024/01/02 07:43:11;;;;;;;1.02;0.65;;;13.70;99.90;;;;;;5033306;28;20158;-68
2024/01/02 07:45:37;;;;;;;0.40;0.40;;;13.60;99.90;;;;;;5033650;28;20536;-69
2024/01/02 07:48:03;;;;;;;0.95;0.40;;;13.60;99.90;;;;;;5033380;28;20101;-69
2024/01/02 07:50:29;;;;;;;0.10;0.10;;;13.60;99.90;;;;;;5032351;28;20108;-68
2024/01/02 07:52:55;;;;;;;10.88;1.33;;;13.60;99.90;;;;;;5033509;28;20075;-70
2024/01/02 07:55:20;;;;;;;1.73;0.43;;;13.60;99.90;;;;;;5031905;28;20037;-68
2024/01/02 07:57:46;;;;;;;0.52;0.52;;;13.60;99.90;;;;;;5033536;28;20037;-70
2024/01/02 08:00:13;;;;;;;1.30;0.68;;;13.60;99.90;;;;;;5033204;28;20044;-68
2024/01/02 08:02:39;;;;;;;0.00;0.00;;;13.60;99.90;;;;;;5033365;28;20056;-68
2024/01/02 08:05:06;;;;;;;0.10;0.10;;;13.60;99.90;;;;;;5049473;22;20060;-69
2024/01/02 08:07:32;;;;;;;0.38;0.38;;;13.60;99.90;;;;;;5052511;28;20017;-69
2024/01/02 08:09:57;;;;;;;0.20;0.20;;;13.60;99.90;;;;;;5043295;28;20025;-69
2024/01/02 08:12:24;;;;;;;0.17;0.17;;;13.60;99.90;;;;;;5035310;28;20021;-68
2024/01/02 08:14:49;;;;;;;1.20;1.10;;;13.70;99.90;;;;;;5049854;23;20551;-68
2024/01/02 08:17:20;;;;;;;3.75;0.57;;;13.80;99.90;;;;;;5051104;28;20033;-70
2024/01/02 08:19:46;;;;;;;1.13;0.95;;;13.80;99.90;;;;;;5052507;28;20485;-68
2024/01/02 08:22:13;;;;;;;0.40;0.40;;;13.70;99.90;;;;;;5052659;28;20031;-70
2024/01/02 08:24:39;;;;;;;0.13;0.13;;;13.60;99.90;;;;;;5052501;28;20025;-69
2024/01/02 08:27:05;;;;;;;0.20;0.20;;;13.70;99.90;;;;;;5053058;28;20488;-69
2024/01/02 08:29:31;;;;;;;1.45;0.55;;;13.80;99.90;;;;;;5051575;28;20017;-68
2024/01/02 08:31:56;;;;;;;0.50;0.50;;;13.50;99.90;;;;;;5053023;28;20035;-68
2024/01/02 08:34:22;;;;;;;0.45;0.45;;;13.50;99.90;;;;;;5052727;28;20029;-69
2024/01/02 08:36:48;;;;;;;0.20;0.20;;;13.50;99.90;;;;;;5051326;28;20025;-70
2024/01/02 08:39:14;;;;;;;0.20;0.20;;;13.60;99.90;;;;;;5052786;28;20032;-69
2024/01/02 08:41:40;;;;;;;2.63;0.38;;;13.70;99.90;;;;;;5052832;28;20029;-69
2024/01/02 08:44:06;;;;;;;0.03;0.03;;;13.70;99.90;;;;;;5052937;28;20119;-69
2024/01/02 08:46:33;;;;;;;0.30;0.30;;;13.60;99.90;;;;;;5052447;28;20052;-69
2024/01/02 08:48:59;;;;;;;0.90;0.88;;;13.60;99.90;;;;;;5052531;28;20115;-69
2024/01/02 08:51:25;;;;;;;0.10;0.10;;;13.50;99.90;;;;;;5051123;28;20108;-69
2024/01/02 08:53:51;;;;;;;1.75;1.08;;;13.60;99.90;;;;;;5052771;28;20184;-68
2024/01/02 08:56:17;;;;;;;0.00;0.00;;;13.50;99.90;;;;;;5054558;28;20029;-69
2024/01/02 08:58:43;;;;;;;0.40;0.40;;;13.50;99.90;;;;;;5056513;28;20060;-68
2024/01/02 09:01:12;;;;;;;0.52;0.52;;;13.50;99.90;;;;;;5056632;28;20025;-70
2024/01/02 09:03:38;;;;;;;0.80;0.60;;;13.60;99.90;;;;;;5056496;28;20033;-68
2024/01/02 09:06:04;;;;;;;0.85;0.82;;;13.60;99.90;;;;;;5056531;28;20029;-69
2024/01/02 09:08:30;;;;;;;0.20;0.17;;;13.60;99.90;;;;;;5044386;28;20034;-69
2024/01/02 09:10:56;;;;;;;1.45;0.30;;;13.70;99.90;;;;;;5054689;28;20025;-69
2024/01/02 09:13:22;;;;;;;1.48;0.73;;;13.60;99.90;;;;;;5056317;28;20037;-69
2024/01/02 09:15:48;;;;;;;0.75;0.73;;;13.60;99.90;;;;;;5055719;28;20037;-68
2024/01/02 09:18:14;;;;;;;0.43;0.43;;;13.60;99.90;;;;;;5056559;28;20032;-69
2024/01/02 09:20:40;;;;;;;0.00;0.00;;;13.50;99.90;;;;;;5055905;28;20059;-70
2024/01/02 09:23:05;;;;;;;0.22;0.22;;;13.60;99.90;;;;;;5056297;28;20094;-68
2024/01/02 09:25:35;;;;;;;0.00;0.00;;;13.80;99.90;;;;;;5056192;28;20041;-68
2024/01/02 09:28:04;;;;;;;0.08;0.08;;;13.80;99.90;;;;;;5054854;28;20489;-69
2024/01/02 09:30:29;;;;;;;1.05;0.70;;;13.70;99.90;;;;;;5056309;28;20069;-68
2024/01/02 09:32:55;;;;;;;0.00;0.00;;;13.50;99.90;;;;;;5055784;28;20432;-69
2024/01/02 09:35:21;;;;;;;0.00;0.00;;;13.70;99.90;;;;;;5054555;28;20069;-69
2024/01/02 09:37:47;;;;;;;0.15;0.10;;;13.70;99.90;;;;;;5056006;28;20028;-69
2024/01/02 09:40:36;;;;;;;0.38;0.22;;;13.70;99.90;;;;;;5055976;28;20124;-69
2024/01/02 09:43:26;;;;;;;0.10;0.10;;;13.60;99.90;;;;;;5055728;28;20057;-69
2024/01/02 09:46:41;;;;;;;0.80;0.43;;;13.40;99.90;;;;;;5055709;28;20036;-68
2024/01/02 09:49:22;;;;;;;0.20;0.20;;;13.40;99.90;;;;;;5042206;28;20041;-68
2024/01/02 09:51:56;;;;;;;0.10;0.10;;;13.50;99.90;;;;;;5055704;28;20033;-68
2024/01/02 09:54:25;;;;;;;0.00;0.00;;;13.50;99.90;;;;;;5056274;28;20132;-69
2024/01/02 09:57:09;;;;;;;0.10;0.10;;;13.40;99.90;;;;;;5055394;28;20029;-69
2024/01/02 09:59:55;;;;;;;0.00;0.00;;;13.50;99.90;;;;;;5055582;28;20074;-69
2024/01/02 10:02:50;;;;;;;0.00;0.00;;;13.70;99.90;;;;;;5055356;28;20097;-69
2024/01/02 10:05:44;;;;;;;0.00;0.00;;;13.70;99.90;;;;;;5041459;28;20048;-69
2024/01/02 10:08:34;;;;;;;1.15;0.10;;;13.60;99.90;;;;;;5043655;28;20044;-69
2024/01/02 10:11:18;;;;;;;0.00;0.00;;;13.60;99.90;;;;;;5049306;28;20021;-68
2024/01/02 10:14:13;;;;;;;0.50;0.40;;;13.40;99.90;;;;;;5048200;28;20036;-69
2024/01/02 10:17:01;;;;;;;0.00;0.00;;;13.50;99.90;;;;;;5043288;28;20041;-69
2024/01/02 10:19:59;;;;;;;0.20;0.20;;;13.50;99.90;;;;;;5055241;28;20078;-69
2024/01/02 10:22:57;;;;;;;0.10;0.10;;;13.40;99.90;;;;;;5051453;28;20040;-68
2024/01/02 10:25:24;;;;;;;0.10;0.10;;;13.30;99.90;;;;;;5054537;28;20052;-69
2024/01/02 10:28:13;;;;;;;0.00;0.00;;;13.30;99.90;;;;;;5054926;28;20017;-68
2024/01/02 10:31:07;;;;;;;0.10;0.10;;;13.30;99.90;;;;;;5054807;28;20037;-68
2024/01/02 10:33:45;;;;;;;0.00;0.00;;;13.40;99.90;;;;;;5054807;28;20063;-68
2024/01/02 10:36:16;;;;;;;0.00;0.00;;;13.30;99.90;;;;;;5053533;28;20424;-68
2024/01/02 10:39:11;;;;;;;0.00;0.00;;;13.30;99.90;;;;;;5054810;28;20029;-69
2024/01/02 10:41:52;;;;;;;0.10;0.10;;;13.20;99.90;;;;;;5054626;28;20553;-67
2024/01/02 10:44:29;;;;;;;0.10;0.10;;;13.10;99.90;;;;;;5054745;28;20021;-69
2024/01/02 10:47:00;;;;;;;0.10;0.10;;;13.10;99.90;;;;;;5052973;28;20072;-69
2024/01/02 10:49:57;;;;;;;0.10;0.10;;;13.20;99.90;;;;;;5047964;28;20036;-68
2024/01/02 10:52:49;;;;;;;0.10;0.10;;;13.00;99.90;;;;;;5044140;28;20052;-69
2024/01/02 10:55:19;;;;;;;;;;;13.10;99.90;;;;;;5054828;28;20025;-69
2024/01/02 10:58:10;;;;;;;0.00;0.00;;;13.10;99.90;;;;;;5054378;28;19958;-69
2024/01/02 11:00:51;;;;;;;0.13;0.13;;;13.20;99.90;;;;;;5041494;28;20043;-68
2024/01/02 11:03:19;;;;;;;0.00;0.00;;;13.10;99.90;;;;;;5054204;28;20389;-68
2024/01/02 11:06:08;;;;;;;0.10;0.10;;;13.20;99.90;;;;;;5054196;28;20021;-68
2024/01/02 11:08:58;;;;;;;0.30;0.20;;;13.20;99.90;;;;;;5041504;28;20025;-68
2024/01/02 11:11:25;;;;;;;0.05;0.05;;;13.10;99.90;;;;;;5041165;28;20052;-68
2024/01/02 11:13:52;;;;;;;0.10;0.10;;;13.10;99.90;;;;;;5053947;28;20063;-68
2024/01/02 11:16:22;;;;;;;0.05;0.05;;;13.00;99.90;;;;;;5052775;28;20063;-69
2024/01/02 11:18:52;;;;;;;0.10;0.10;;;13.00;99.90;;;;;;5053398;28;20033;-68
2024/01/02 11:21:39;;;;;;;0.47;0.47;;;13.00;99.90;;;;;;5054051;28;20017;-69
2024/01/02 11:24:07;;;;;;;0.38;0.30;;;13.00;99.90;;;;;;5053748;28;20028;-68
2024/01/02 11:26:41;;;;;;;0.10;0.10;;;13.00;99.90;;;;;;5053816;28;20024;-68
2024/01/02 11:29:18;;;;;;;1.23;0.25;;;13.00;99.90;;;;;;5053449;28;20052;-69
2024/01/02 11:31:48;;;;;;;0.10;0.10;;;13.00;99.90;;;;;;5052297;28;20060;-69
2024/01/02 11:34:45;;;;;;;0.10;0.10;;;12.90;99.90;;;;;;5052474;28;20025;-69
2024/01/02 11:37:36;;;;;;;0.22;0.20;;;13.00;99.90;;;;;;5043918;28;20060;-69
2024/01/02 11:40:08;;;;;;;0.08;0.08;;;12.90;99.90;;;;;;5053304;28;20071;-69
2024/01/02 11:42:58;;;;;;;0.10;0.10;;;13.00;99.90;;;;;;5053355;28;20029;-68
2024/01/02 11:45:36;;;;;;;0.20;0.20;;;13.00;99.90;;;;;;5041157;28;20117;-68
2024/01/02 11:48:33;;;;;;;1.95;0.73;;;13.00;99.90;;;;;;5053094;28;20363;-70
2024/01/02 11:51:23;;;;;;;0.10;0.10;;;13.00;99.90;;;;;;5053515;28;20056;-69
2024/01/02 11:54:22;;;;;;;0.13;0.10;;;12.90;99.90;;;;;;5040566;28;20079;-68
2024/01/02 11:56:48;;;;;;;0.00;0.00;;;13.00;99.90;;;;;;5052908;28;20037;-68
2024/01/02 11:59:34;;;;;;;0.10;0.10;;;13.00;99.90;;;;;;5052825;28;20036;-69
2024/01/02 12:02:08;;;;;;;0.77;0.20;;;13.00;99.90;;;;;;5051750;28;20040;-68
2024/01/02 12:05:10;;;;;;;0.40;0.30;;;13.00;99.90;;;;;;5052913;28;20043;-69
2024/01/02 12:07:41;;;;;;;1.23;0.55;;;13.00;99.90;;;;;;5036909;28;20025;-70
2024/01/02 12:10:08;;;;;;;0.00;0.00;;;13.10;99.90;;;;;;5044249;28;20102;-70
2024/01/02 12:12:42;;;;;;;0.10;0.10;;;13.10;99.90;;;;;;5052589;28;20021;-69
2024/01/02 12:15:33;;;;;;;0.15;0.15;;;13.20;99.90;;;;;;5051252;28;20025;-69
2024/01/02 12:18:03;;;;;;;0.35;0.30;;;13.10;99.90;;;;;;5039136;28;20029;-69
2024/01/02 12:20:56;;;;;;;0.10;0.10;;;13.10;99.90;;;;;;5052870;28;20120;-70
2024/01/02 12:23:23;;;;;;;0.08;0.08;;;13.10;99.90;;;;;;5045461;28;20094;-69
2024/01/02 12:25:55;;;;;;;0.10;0.10;;;13.10;99.90;;;;;;5052867;28;20064;-70
2024/01/02 12:28:24;;;;;;;0.45;0.38;;;13.20;99.90;;;;;;5015082;28;20534;-69
2024/01/02 12:31:18;;;;;;;0.30;0.30;;;13.20;99.90;;;;;;5044794;28;20489;-69
2024/01/02 12:34:05;;;;;;;2.33;0.47;;;13.20;99.90;;;;;;5042737;28;20462;-69
2024/01/02 12:36:36;;;;;;;0.28;0.28;;;13.20;99.90;;;;;;5049123;28;20536;-71
2024/01/02 12:39:05;;;;;;;;;;;13.30;99.90;;;;;;5053044;28;20083;-69
2024/01/02 12:41:38;;;;;;;0.15;0.15;;;13.50;99.90;;;;;;5052616;28;19908;-69
2024/01/02 12:44:07;;;;;;;3.00;0.73;;;13.40;99.90;;;;;;5051497;28;20393;-69
2024/01/02 12:47:00;;;;;;;1.02;0.20;;;13.40;99.90;;;;;;5051301;28;20557;-70
2024/01/02 12:49:28;;;;;;;0.17;0.17;;;13.50;99.90;;;;;;5051590;28;20057;-69
2024/01/02 12:52:04;;;;;;;0.10;0.10;;;13.50;99.90;;;;;;5052599;28;20052;-70
2024/01/02 12:54:30;;;;;;;0.10;0.10;;;13.50;99.90;;;;;;5084469;22;20405;-70
2024/01/02 12:57:02;;;;;;;0.10;0.10;;;13.60;99.90;;;;;;5072532;28;20028;-70
2024/01/02 12:59:33;;;;;;;0.65;0.20;;;13.60;99.90;;;;;;5071166;28;20048;-70